Time;durP1;ratioP1;P1;durP2;ratioP2;P2;SDS_P1;SDS_P2;PMS_P1;PMS_P2;Temp;Humidity;BMP_temperature;BMP_pressure;BME280_temperature;BME280_humidity;BME280_pressure;Samples;Min_cycle;Max_cycle;Signal;HPM_P1;HPM_P2
2022/06/07 00:01:38;;;;;;;3.85;3.55;;;12.90;99.90;;;;;;5012869;28;20092;-76
2022/06/07 00:04:05;;;;;;;3.50;2.92;;;12.90;99.90;;;;;;5016128;28;20030;-75
2022/06/07 00:06:31;;;;;;;3.95;3.60;;;12.90;99.90;;;;;;5029022;28;20033;-75
2022/06/07 00:08:56;;;;;;;4.97;4.47;;;12.90;99.90;;;;;;4994019;28;20083;-86
2022/06/07 00:11:23;;;;;;;3.47;2.97;;;13.00;99.90;;;;;;5011571;28;20021;-75
2022/06/07 00:13:49;;;;;;;5.68;3.95;;;13.00;99.90;;;;;;5017467;28;20033;-75
2022/06/07 00:16:17;;;;;;;4.95;4.03;;;13.00;99.90;;;;;;5027611;28;20123;-75
2022/06/07 00:18:43;;;;;;;4.50;4.10;;;13.00;99.90;;;;;;5027732;28;20438;-75
2022/06/07 00:21:09;;;;;;;5.60;5.10;;;13.00;99.90;;;;;;5012232;28;20029;-77
2022/06/07 00:23:35;;;;;;;5.65;4.75;;;13.00;99.90;;;;;;5028942;28;20041;-76
2022/06/07 00:26:02;;;;;;;5.22;4.72;;;13.00;99.90;;;;;;5015795;28;20065;-76
2022/06/07 00:28:29;;;;;;;7.72;6.57;;;13.00;99.90;;;;;;5011707;28;20029;-76
2022/06/07 00:30:55;;;;;;;6.95;6.00;;;13.00;99.90;;;;;;5013632;28;20034;-75
2022/06/07 00:33:22;;;;;;;6.40;5.05;;;13.00;99.90;;;;;;5019015;28;20741;-76
2022/06/07 00:35:49;;;;;;;7.38;5.88;;;13.00;99.90;;;;;;5027212;28;20029;-76
2022/06/07 00:38:15;;;;;;;7.55;5.40;;;13.00;99.90;;;;;;5013599;28;20044;-76
2022/06/07 00:40:42;;;;;;;5.75;4.75;;;13.00;99.90;;;;;;5012511;28;20030;-76
2022/06/07 00:43:08;;;;;;;5.75;4.72;;;13.00;99.90;;;;;;5014929;28;20083;-75
2022/06/07 00:45:36;;;;;;;7.32;6.50;;;13.10;99.90;;;;;;5011796;28;20029;-76
2022/06/07 00:48:04;;;;;;;7.90;7.05;;;13.00;99.90;;;;;;5012245;28;20064;-76
2022/06/07 00:51:16;;;;;;;6.75;6.05;;;13.00;99.90;;;;;;5017221;28;20033;-76
2022/06/07 00:53:42;;;;;;;8.38;7.30;;;13.00;99.90;;;;;;5011435;28;20045;-76
2022/06/07 00:56:28;;;;;;;8.38;5.97;;;13.00;99.90;;;;;;5013018;28;20090;-76
2022/06/07 00:58:54;;;;;;;7.18;6.10;;;13.00;99.90;;;;;;4999350;28;20121;-76
2022/06/07 01:01:20;;;;;;;6.85;5.15;;;13.10;99.90;;;;;;5027645;28;20112;-76
2022/06/07 01:03:48;;;;;;;8.80;5.95;;;13.10;99.90;;;;;;5015766;28;20025;-76
2022/06/07 01:11:44;;;;;;;7.80;5.35;;;13.10;99.90;;;;;;5026793;28;20025;-76
2022/06/07 01:14:11;;;;;;;6.80;5.22;;;13.10;99.90;;;;;;5027555;28;20034;-76
2022/06/07 01:16:37;;;;;;;8.90;7.20;;;13.10;99.90;;;;;;5016499;28;20045;-76
2022/06/07 01:19:02;;;;;;;7.10;5.38;;;13.10;99.90;;;;;;5026573;28;20057;-75
2022/06/07 01:21:40;;;;;;;8.30;7.05;;;13.10;99.90;;;;;;5015490;28;20029;-76
2022/06/07 01:24:08;;;;;;;9.27;7.40;;;13.20;99.90;;;;;;5014235;28;20036;-76
2022/06/07 01:26:51;;;;;;;7.82;6.50;;;13.10;99.90;;;;;;5026873;28;20108;-75
2022/06/07 01:29:17;;;;;;;10.07;7.68;;;13.10;99.90;;;;;;5027388;28;20039;-75
2022/06/07 01:31:44;;;;;;;7.25;6.53;;;13.20;99.90;;;;;;5026585;28;20037;-75
2022/06/07 01:34:11;;;;;;;10.82;7.32;;;13.20;99.90;;;;;;5026393;28;20039;-75
2022/06/07 01:36:37;;;;;;;9.75;7.68;;;13.10;99.90;;;;;;5026656;28;20480;-75
2022/06/07 01:41:54;;;;;;;11.88;10.30;;;13.10;99.90;;;;;;5012306;28;20034;-76
2022/06/07 01:44:30;;;;;;;13.07;9.57;;;13.10;99.90;;;;;;5010870;28;20508;-76
2022/06/07 01:46:59;;;;;;;10.68;9.57;;;13.10;99.90;;;;;;5015348;28;20078;-78
2022/06/07 01:49:26;;;;;;;14.52;12.07;;;13.10;99.90;;;;;;5026665;28;20025;-75
2022/06/07 01:51:53;;;;;;;10.68;9.00;;;13.10;99.90;;;;;;5010803;28;20033;-76
2022/06/07 01:54:20;;;;;;;13.38;9.18;;;13.10;99.90;;;;;;5026594;28;20141;-75
2022/06/07 01:56:48;;;;;;;10.65;8.43;;;13.10;99.90;;;;;;5016280;28;20047;-76
2022/06/07 01:59:14;;;;;;;8.98;7.55;;;13.20;99.90;;;;;;5011545;28;20037;-76
2022/06/07 02:01:39;;;;;;;10.70;8.30;;;13.10;99.90;;;;;;5027142;28;20033;-76
2022/06/07 02:04:06;;;;;;;9.73;8.05;;;13.10;99.90;;;;;;5016015;28;20092;-76
2022/06/07 02:06:32;;;;;;;9.20;7.45;;;13.10;99.90;;;;;;5025726;28;20339;-75
2022/06/07 02:08:59;;;;;;;10.55;7.43;;;13.10;99.90;;;;;;5027062;28;20622;-76
2022/06/07 02:11:27;;;;;;;9.60;7.60;;;13.10;99.90;;;;;;4992198;28;20037;-75
2022/06/07 02:14:03;;;;;;;9.40;7.55;;;13.10;99.90;;;;;;5026451;28;20477;-75
2022/06/07 02:16:29;;;;;;;11.68;8.98;;;13.10;99.90;;;;;;5011843;28;20038;-75
2022/06/07 02:18:55;;;;;;;11.20;8.48;;;13.10;99.90;;;;;;5010188;28;20113;-76
2022/06/07 02:21:33;;;;;;;11.05;7.82;;;13.10;99.90;;;;;;5012126;28;20062;-76
2022/06/07 02:23:59;;;;;;;15.98;11.57;;;13.10;99.90;;;;;;5010930;28;20435;-76
2022/06/07 02:26:30;;;;;;;11.63;9.85;;;13.10;99.90;;;;;;5010721;28;20037;-75
2022/06/07 02:28:57;;;;;;;;;;;13.10;99.90;;;;;;5015803;28;20120;-75
2022/06/07 02:31:24;;;;;;;9.90;8.35;;;13.10;99.90;;;;;;5012047;28;19917;-75
2022/06/07 02:33:50;;;;;;;11.98;10.30;;;13.10;99.90;;;;;;5014639;28;20034;-75
2022/06/07 02:36:17;;;;;;;9.65;8.20;;;13.10;99.90;;;;;;5014646;28;20050;-76
2022/06/07 02:38:44;;;;;;;9.57;7.55;;;13.10;99.90;;;;;;5025952;28;20029;-75
2022/06/07 02:41:15;;;;;;;9.25;7.47;;;13.10;99.90;;;;;;5026625;28;20037;-75
2022/06/07 02:43:41;;;;;;;12.13;9.85;;;13.10;99.90;;;;;;5012498;28;20116;-75
2022/06/07 02:46:06;;;;;;;9.65;7.82;;;13.10;99.90;;;;;;5029426;28;20112;-75
2022/06/07 02:48:33;;;;;;;10.55;7.97;;;13.10;99.90;;;;;;5019628;28;20079;-76
2022/06/07 02:50:59;;;;;;;10.68;8.80;;;13.10;99.90;;;;;;5028694;28;20029;-75
2022/06/07 02:53:25;;;;;;;10.65;8.15;;;13.10;99.90;;;;;;5030437;28;20465;-75
2022/06/07 02:55:51;;;;;;;7.45;5.97;;;13.10;99.90;;;;;;5018496;28;20489;-76
2022/06/07 02:58:21;;;;;;;9.77;8.48;;;13.20;99.90;;;;;;5028582;28;20387;-76
2022/06/07 03:00:47;;;;;;;11.98;8.57;;;13.10;99.90;;;;;;5030206;28;20025;-75
2022/06/07 03:03:15;;;;;;;9.07;8.20;;;13.10;99.90;;;;;;5029211;28;20068;-75
2022/06/07 03:05:43;;;;;;;10.00;8.98;;;13.10;99.90;;;;;;5028825;28;20102;-75
2022/06/07 03:08:09;;;;;;;13.38;9.50;;;13.10;99.90;;;;;;5029333;28;20060;-76
2022/06/07 03:10:36;;;;;;;11.38;7.75;;;13.20;99.90;;;;;;4996514;28;21957;-76
2022/06/07 03:13:03;;;;;;;12.55;9.57;;;13.10;99.90;;;;;;5015203;28;20036;-74
2022/06/07 03:15:30;;;;;;;13.07;9.23;;;13.10;99.90;;;;;;5029399;28;20033;-76
2022/06/07 03:17:58;;;;;;;13.60;11.65;;;13.10;99.90;;;;;;5019203;28;20037;-76
2022/06/07 03:20:32;;;;;;;17.63;12.35;;;13.10;99.90;;;;;;5001225;28;20116;-76
2022/06/07 03:22:58;;;;;;;14.70;12.23;;;13.10;99.90;;;;;;5018115;28;20038;-76
2022/06/07 03:25:25;;;;;;;12.52;10.88;;;13.00;99.90;;;;;;5013735;28;20026;-76
2022/06/07 03:27:59;;;;;;;15.60;13.23;;;13.00;99.90;;;;;;5017274;28;20401;-76
2022/06/07 03:30:25;;;;;;;14.05;12.10;;;13.00;99.90;;;;;;5029664;28;20037;-76
2022/06/07 03:32:52;;;;;;;13.75;12.10;;;13.00;99.90;;;;;;5017824;28;20057;-76
2022/06/07 03:35:19;;;;;;;15.20;10.60;;;13.00;99.90;;;;;;5014540;28;20549;-75
2022/06/07 03:37:45;;;;;;;12.18;10.48;;;13.00;99.90;;;;;;5028045;28;20665;-76
2022/06/07 03:40:14;;;;;;;14.63;12.23;;;13.00;99.90;;;;;;5017358;28;20053;-75
2022/06/07 03:42:41;;;;;;;13.40;11.48;;;13.00;99.90;;;;;;4996141;28;20673;-75
2022/06/07 03:45:08;;;;;;;15.68;13.38;;;13.00;99.90;;;;;;4998481;28;20038;-76
2022/06/07 03:47:37;;;;;;;12.07;10.75;;;13.00;99.90;;;;;;5027953;28;20109;-75
2022/06/07 03:50:03;;;;;;;12.55;11.05;;;13.00;99.90;;;;;;5000945;28;20033;-75
2022/06/07 03:52:30;;;;;;;11.40;9.50;;;13.00;99.90;;;;;;5011653;28;20021;-77
2022/06/07 03:54:56;;;;;;;13.90;12.23;;;13.00;99.90;;;;;;5029547;28;20025;-76
2022/06/07 03:57:25;;;;;;;12.52;11.18;;;13.00;99.90;;;;;;5014115;28;20393;-76
2022/06/07 03:59:55;;;;;;;11.35;9.43;;;13.00;99.90;;;;;;5011379;28;20586;-76
2022/06/07 04:02:21;;;;;;;12.75;10.75;;;13.00;99.90;;;;;;5027474;28;20065;-76
2022/06/07 04:04:47;;;;;;;14.40;12.55;;;13.00;99.90;;;;;;5027971;28;21787;-76
2022/06/07 04:10:01;;;;;;;11.20;9.43;;;13.10;99.90;;;;;;5028443;28;20022;-76
2022/06/07 04:12:36;;;;;;;9.60;8.63;;;13.00;99.90;;;;;;5028682;28;20052;-76
2022/06/07 04:15:02;;;;;;;10.35;9.30;;;13.10;99.90;;;;;;5011033;28;20472;-76
2022/06/07 04:17:29;;;;;;;11.02;9.48;;;13.10;99.90;;;;;;5027692;28;20702;-75
2022/06/07 04:20:13;;;;;;;13.70;12.07;;;13.10;99.90;;;;;;5016707;28;20033;-75
2022/06/07 04:22:38;;;;;;;10.73;9.35;;;13.00;99.90;;;;;;5011018;28;20029;-76
2022/06/07 04:25:08;;;;;;;10.45;6.93;;;13.00;99.90;;;;;;5016812;28;20111;-76
2022/06/07 04:27:38;;;;;;;10.45;8.05;;;13.10;99.90;;;;;;5011867;28;20032;-76
2022/06/07 04:30:05;;;;;;;9.20;8.07;;;13.00;99.90;;;;;;5012451;28;20018;-76
2022/06/07 04:32:33;;;;;;;10.60;9.02;;;13.10;99.90;;;;;;5011872;28;20028;-75
2022/06/07 04:35:00;;;;;;;13.40;11.75;;;13.10;99.90;;;;;;5017309;28;20406;-75
2022/06/07 04:37:26;;;;;;;12.73;10.02;;;13.00;99.90;;;;;;5015849;28;20061;-76
2022/06/07 04:39:58;;;;;;;8.77;7.75;;;13.10;99.90;;;;;;5009228;28;20121;-76
2022/06/07 04:42:24;;;;;;;10.98;8.02;;;13.10;99.90;;;;;;5011470;28;20627;-77
2022/06/07 04:45:06;;;;;;;11.45;10.25;;;13.10;99.90;;;;;;5026534;28;20366;-76
2022/06/07 04:47:47;;;;;;;10.70;9.50;;;13.10;99.90;;;;;;5016597;28;20042;-76
2022/06/07 04:50:18;;;;;;;12.02;10.30;;;13.20;99.90;;;;;;5026762;28;20576;-76
2022/06/07 04:52:45;;;;;;;11.02;9.80;;;13.20;99.90;;;;;;5010106;28;20021;-76
2022/06/07 04:55:14;;;;;;;12.70;9.55;;;13.20;99.90;;;;;;5010771;28;20034;-76
2022/06/07 04:57:41;;;;;;;14.23;12.73;;;13.20;99.90;;;;;;5010416;28;20419;-76
2022/06/07 05:00:14;;;;;;;17.58;12.02;;;13.10;99.90;;;;;;5011145;28;20497;-76
2022/06/07 05:02:46;;;;;;;14.15;10.27;;;13.20;99.90;;;;;;4993837;28;20040;-75
2022/06/07 05:05:14;;;;;;;14.95;13.30;;;13.20;99.90;;;;;;5009815;28;20052;-76
2022/06/07 05:07:42;;;;;;;12.68;10.35;;;13.20;99.90;;;;;;5009904;28;20206;-76
2022/06/07 05:10:13;;;;;;;13.23;10.07;;;13.30;99.90;;;;;;4992708;28;20498;-75
2022/06/07 05:12:44;;;;;;;16.13;13.27;;;13.40;99.90;;;;;;5012476;28;20029;-76
2022/06/07 05:15:15;;;;;;;12.50;9.48;;;13.40;99.90;;;;;;4999180;28;20489;-75
2022/06/07 05:17:51;;;;;;;12.80;10.20;;;13.40;99.90;;;;;;5024493;28;20479;-76
2022/06/07 05:20:19;;;;;;;13.77;12.02;;;13.40;99.90;;;;;;5026933;28;20032;-76
2022/06/07 05:22:48;;;;;;;17.75;14.98;;;13.40;99.90;;;;;;4993330;28;20469;-76
2022/06/07 05:25:16;;;;;;;19.80;14.57;;;13.40;99.90;;;;;;5015420;28;20034;-76
2022/06/07 05:27:48;;;;;;;15.48;11.75;;;13.40;99.90;;;;;;5010062;28;20032;-75
2022/06/07 05:30:17;;;;;;;19.10;15.25;;;13.50;99.90;;;;;;5010716;28;20413;-77
2022/06/07 05:32:45;;;;;;;16.75;12.80;;;13.50;99.90;;;;;;5009007;28;20164;-76
2022/06/07 05:35:16;;;;;;;15.98;13.80;;;13.70;99.90;;;;;;5011085;28;20120;-80
2022/06/07 05:37:56;;;;;;;16.63;14.48;;;13.60;99.90;;;;;;5009403;28;20049;-75
2022/06/07 05:40:24;;;;;;;18.40;16.23;;;13.50;99.90;;;;;;5004547;28;20039;-76
2022/06/07 05:42:51;;;;;;;21.08;16.17;;;13.50;99.90;;;;;;5024011;28;20038;-76
2022/06/07 05:45:26;;;;;;;16.58;13.85;;;13.50;99.90;;;;;;5024194;28;20086;-76
2022/06/07 05:47:52;;;;;;;16.42;14.70;;;13.60;99.90;;;;;;5009736;28;20129;-76
2022/06/07 05:50:18;;;;;;;18.67;15.30;;;13.50;99.90;;;;;;4993041;28;20486;-77
2022/06/07 05:52:49;;;;;;;18.73;13.57;;;13.50;99.90;;;;;;5025698;28;20750;-75
2022/06/07 05:55:15;;;;;;;13.45;11.98;;;13.60;99.90;;;;;;5014778;28;20124;-75
2022/06/07 05:57:44;;;;;;;17.20;14.65;;;13.80;99.90;;;;;;5014601;28;20044;-76
2022/06/07 06:00:11;;;;;;;15.15;12.90;;;13.70;99.90;;;;;;5024487;28;20025;-76
2022/06/07 06:02:39;;;;;;;15.38;12.02;;;13.80;99.90;;;;;;5011179;28;20045;-75
2022/06/07 06:05:13;;;;;;;11.73;10.52;;;13.90;99.90;;;;;;5025262;28;20059;-76
2022/06/07 06:10:19;;;;;;;10.45;8.77;;;13.90;99.90;;;;;;5005948;28;20021;-75
2022/06/07 06:10:28;;;;;;;13.50;10.68;;;14.00;99.90;;;;;;5008235;28;20129;-76
2022/06/07 06:13:01;;;;;;;18.20;14.73;;;14.00;99.90;;;;;;5005033;28;20091;-76
2022/06/07 06:15:27;;;;;;;17.13;13.50;;;13.90;99.90;;;;;;5012819;28;20033;-76
2022/06/07 06:17:55;;;;;;;15.23;12.23;;;13.90;99.90;;;;;;4992915;28;20041;-77
2022/06/07 06:20:30;;;;;;;15.57;13.40;;;13.90;99.90;;;;;;5013912;28;20460;-76
2022/06/07 06:22:59;;;;;;;13.20;11.13;;;13.90;99.90;;;;;;5011803;28;20034;-76
2022/06/07 06:25:26;;;;;;;15.23;12.85;;;14.00;99.90;;;;;;5010407;28;20443;-75
2022/06/07 06:27:52;;;;;;;15.35;12.65;;;14.00;99.90;;;;;;5010532;28;20121;-76
2022/06/07 06:30:20;;;;;;;17.92;13.82;;;14.00;99.90;;;;;;4997828;28;20037;-76
2022/06/07 06:32:58;;;;;;;18.00;14.55;;;14.00;99.90;;;;;;5011874;28;20718;-76
2022/06/07 06:35:24;;;;;;;15.80;14.10;;;14.00;99.90;;;;;;4996809;28;20040;-76
2022/06/07 06:37:51;;;;;;;19.67;15.82;;;14.10;99.90;;;;;;5022917;28;20397;-76
2022/06/07 06:40:19;;;;;;;19.85;15.77;;;14.20;99.90;;;;;;5027040;28;20025;-76
2022/06/07 06:42:52;;;;;;;15.93;12.70;;;14.20;99.90;;;;;;4995572;28;20029;-76
2022/06/07 06:45:42;;;;;;;18.52;15.73;;;14.40;99.90;;;;;;5009215;28;20440;-76
2022/06/07 06:48:14;;;;;;;17.63;15.65;;;14.40;99.90;;;;;;4993305;28;20044;-76
2022/06/07 06:50:42;;;;;;;19.40;15.10;;;14.30;99.90;;;;;;4999439;28;20026;-76
2022/06/07 06:53:08;;;;;;;15.60;13.60;;;14.40;99.90;;;;;;4997257;28;20034;-76
2022/06/07 06:55:35;;;;;;;18.05;13.90;;;14.40;99.90;;;;;;5009267;28;20367;-76
2022/06/07 06:58:03;;;;;;;12.93;10.32;;;14.60;99.90;;;;;;5010037;28;20086;-76
2022/06/07 07:00:28;;;;;;;13.35;11.82;;;14.70;99.90;;;;;;5011829;28;20029;-76
2022/06/07 07:02:54;;;;;;;13.57;11.05;;;14.70;99.90;;;;;;4994063;28;20056;-76
2022/06/07 07:05:21;;;;;;;14.05;12.32;;;14.80;99.90;;;;;;5006609;28;21886;-76
2022/06/07 07:07:58;;;;;;;19.70;14.20;;;15.00;99.90;;;;;;5010454;28;20036;-76
2022/06/07 07:10:26;;;;;;;13.43;11.73;;;15.00;99.90;;;;;;4998493;28;20037;-76
2022/06/07 07:12:52;;;;;;;15.05;12.90;;;15.20;99.90;;;;;;5011738;28;20025;-76
2022/06/07 07:15:20;;;;;;;13.07;11.68;;;15.10;99.90;;;;;;4990793;28;20500;-76
2022/06/07 07:18:00;;;;;;;16.77;14.98;;;15.30;99.90;;;;;;4995646;28;20482;-76
2022/06/07 07:20:28;;;;;;;11.80;10.60;;;15.30;99.90;;;;;;5011068;28;20030;-76
2022/06/07 07:22:57;;;;;;;21.42;16.77;;;15.40;99.90;;;;;;5010393;28;20033;-75
2022/06/07 07:25:23;;;;;;;15.55;13.02;;;15.10;99.90;;;;;;4999881;28;20104;-76
2022/06/07 07:27:50;;;;;;;16.52;13.93;;;15.20;99.90;;;;;;5016372;28;20033;-76
2022/06/07 07:30:17;;;;;;;18.52;13.90;;;15.10;99.90;;;;;;5021316;28;20500;-76
2022/06/07 07:32:43;;;;;;;13.88;12.38;;;15.20;99.90;;;;;;5010883;28;20040;-76
2022/06/07 07:35:13;;;;;;;19.33;16.05;;;15.50;99.90;;;;;;5013961;28;20065;-77
2022/06/07 07:37:47;;;;;;;17.45;15.57;;;15.30;99.90;;;;;;5015493;28;20187;-77
2022/06/07 07:40:15;;;;;;;14.50;12.75;;;15.30;99.90;;;;;;5015488;28;20505;-76
2022/06/07 07:42:41;;;;;;;17.30;15.05;;;15.50;99.90;;;;;;5010778;28;20064;-76
2022/06/07 07:45:12;;;;;;;16.92;14.20;;;15.50;99.90;;;;;;5024006;28;20151;-76
2022/06/07 07:47:41;;;;;;;14.68;13.05;;;15.70;99.90;;;;;;5009849;28;20119;-76
2022/06/07 07:50:08;;;;;;;18.67;15.75;;;16.10;99.90;;;;;;5000171;28;20045;-76
2022/06/07 07:52:36;;;;;;;17.52;15.50;;;15.80;99.90;;;;;;5011956;28;20061;-76
2022/06/07 07:55:09;;;;;;;18.77;13.40;;;15.80;99.90;;;;;;5007582;28;20528;-76
2022/06/07 07:57:36;;;;;;;19.50;15.10;;;16.20;99.90;;;;;;4994457;28;20037;-77
2022/06/07 08:00:03;;;;;;;15.52;13.82;;;15.90;99.90;;;;;;5015718;28;20060;-76
2022/06/07 08:02:39;;;;;;;14.32;12.55;;;16.00;99.90;;;;;;5009197;28;20048;-76
2022/06/07 08:05:13;;;;;;;13.75;10.40;;;16.00;99.90;;;;;;5014549;28;20080;-76
2022/06/07 08:07:38;;;;;;;12.43;11.10;;;16.40;99.90;;;;;;4999018;28;20034;-77
2022/06/07 08:10:05;;;;;;;17.17;13.70;;;16.60;99.90;;;;;;5009475;28;20026;-76
2022/06/07 08:12:31;;;;;;;15.65;13.00;;;16.10;99.90;;;;;;5022478;28;20026;-77
2022/06/07 08:14:58;;;;;;;13.45;12.07;;;15.80;99.90;;;;;;5010191;28;20714;-76
2022/06/07 08:17:26;;;;;;;12.52;11.18;;;16.00;99.90;;;;;;5022943;28;20045;-76
2022/06/07 08:19:52;;;;;;;16.70;13.38;;;16.10;99.90;;;;;;5007720;28;20054;-76
2022/06/07 08:22:19;;;;;;;12.68;10.77;;;15.90;99.90;;;;;;5009402;28;20067;-76
2022/06/07 08:24:46;;;;;;;13.98;11.93;;;16.10;99.90;;;;;;5022650;28;20022;-77
2022/06/07 08:27:12;;;;;;;14.90;13.35;;;16.20;99.90;;;;;;4992759;28;20041;-77
2022/06/07 08:29:38;;;;;;;18.45;14.52;;;16.30;99.90;;;;;;5008875;28;20033;-76
2022/06/07 08:32:04;;;;;;;12.60;10.98;;;16.30;99.90;;;;;;4994794;28;20501;-76
2022/06/07 08:37:33;;;;;;;12.45;10.88;;;16.90;99.90;;;;;;5007829;28;20049;-76
2022/06/07 08:39:59;;;;;;;17.27;15.00;;;17.30;99.90;;;;;;5008158;28;20026;-75
2022/06/07 08:42:34;;;;;;;12.65;11.40;;;17.00;99.90;;;;;;5005407;28;20029;-76
2022/06/07 08:45:15;;;;;;;15.48;13.52;;;17.40;99.90;;;;;;4995106;28;20033;-76
2022/06/07 08:47:56;;;;;;;12.45;10.90;;;17.40;99.90;;;;;;4995942;28;20037;-76
2022/06/07 08:50:26;;;;;;;16.63;13.88;;;17.60;99.90;;;;;;5011982;28;20069;-76
2022/06/07 08:52:59;;;;;;;11.45;10.07;;;17.70;99.90;;;;;;5005857;28;20133;-76
2022/06/07 08:55:36;;;;;;;16.98;15.02;;;18.40;99.90;;;;;;5014864;28;20076;-76
2022/06/07 08:58:22;;;;;;;16.02;14.32;;;17.50;99.90;;;;;;5003827;28;20048;-76
2022/06/07 09:00:52;;;;;;;17.30;15.48;;;17.40;99.90;;;;;;5012995;28;20514;-76
2022/06/07 09:03:36;;;;;;;15.02;13.10;;;17.30;99.90;;;;;;5006433;28;20034;-76
2022/06/07 09:06:03;;;;;;;12.80;10.77;;;17.40;99.90;;;;;;4996593;28;20065;-76
2022/06/07 09:08:42;;;;;;;17.10;11.30;;;17.40;99.90;;;;;;5008321;28;20029;-76
2022/06/07 09:14:29;;;;;;;14.30;12.80;;;17.50;99.90;;;;;;5007642;28;20026;-76
2022/06/07 09:16:56;;;;;;;18.83;16.13;;;17.30;99.90;;;;;;5007950;28;20513;-76
2022/06/07 09:19:25;;;;;;;15.20;13.60;;;17.10;99.90;;;;;;5004896;28;20067;-76
2022/06/07 09:21:53;;;;;;;15.32;13.73;;;17.30;99.90;;;;;;5004461;28;20504;-76
2022/06/07 09:24:41;;;;;;;13.13;11.85;;;17.10;99.90;;;;;;5006195;28;20037;-76
2022/06/07 09:27:18;;;;;;;17.35;15.30;;;17.30;99.90;;;;;;5013713;28;20041;-77
2022/06/07 09:29:56;;;;;;;16.33;13.93;;;17.20;99.90;;;;;;4997302;28;20021;-76
2022/06/07 09:32:27;;;;;;;18.52;16.30;;;17.10;99.90;;;;;;5008089;28;20040;-76
2022/06/07 09:35:00;;;;;;;19.05;15.88;;;16.70;99.90;;;;;;5013866;28;20037;-76
2022/06/07 09:37:33;;;;;;;18.02;15.23;;;16.60;99.90;;;;;;4990324;28;20057;-76
2022/06/07 09:40:09;;;;;;;18.85;16.63;;;16.70;99.90;;;;;;4999507;28;20116;-76
2022/06/07 09:42:35;;;;;;;15.32;13.20;;;16.80;99.90;;;;;;5014439;28;20074;-76
2022/06/07 09:45:20;;;;;;;16.90;14.32;;;16.80;99.90;;;;;;4991710;28;20083;-76
2022/06/07 09:47:46;;;;;;;15.10;13.38;;;16.70;99.90;;;;;;5005171;28;20084;-76
2022/06/07 09:50:38;;;;;;;17.45;15.65;;;16.60;99.90;;;;;;5010817;28;20041;-77
2022/06/07 09:53:10;;;;;;;20.38;15.95;;;16.50;99.90;;;;;;5012170;28;20041;-76
2022/06/07 09:55:52;;;;;;;18.17;14.35;;;16.50;99.90;;;;;;5013776;28;20029;-76
2022/06/07 09:58:56;;;;;;;17.88;16.05;;;16.50;99.90;;;;;;5016345;28;20525;-76
2022/06/07 10:01:31;;;;;;;17.95;14.75;;;16.30;99.90;;;;;;5015349;28;20489;-76
2022/06/07 10:04:19;;;;;;;16.08;14.43;;;16.30;99.90;;;;;;4998851;28;20200;-76
2022/06/07 10:06:54;;;;;;;15.25;13.57;;;16.60;99.90;;;;;;5002507;28;20560;-76
2022/06/07 10:10:04;;;;;;;11.25;10.15;;;17.00;99.90;;;;;;5018205;28;20063;-75
2022/06/07 10:12:54;;;;;;;19.42;17.08;;;17.10;99.90;;;;;;4975279;28;20142;-77
2022/06/07 10:15:41;;;;;;;19.88;17.52;;;16.60;99.90;;;;;;4943380;28;20038;-77
2022/06/07 10:18:17;;;;;;;18.02;16.13;;;16.50;99.90;;;;;;4975948;28;20054;-76
2022/06/07 10:21:13;;;;;;;17.60;15.80;;;16.50;99.90;;;;;;4932084;28;20061;-76
2022/06/07 10:24:15;;;;;;;17.88;13.32;;;16.50;99.90;;;;;;4976283;28;20030;-76
2022/06/07 10:27:18;;;;;;;16.17;14.57;;;16.80;99.90;;;;;;4954398;28;20061;-76
2022/06/07 10:29:47;;;;;;;17.67;14.65;;;16.90;99.90;;;;;;4953310;28;20493;-76
2022/06/07 10:32:20;;;;;;;16.90;13.48;;;17.00;99.90;;;;;;4950106;28;20684;-75
2022/06/07 10:37:31;;;;;;;14.40;12.88;;;17.40;99.90;;;;;;4985542;28;20103;-76
2022/06/07 10:40:24;;;;;;;14.40;13.00;;;17.60;99.90;;;;;;4990299;28;20627;-85
2022/06/07 10:42:58;;;;;;;16.55;14.82;;;18.20;99.90;;;;;;4988855;28;20030;-76
2022/06/07 10:45:32;;;;;;;15.73;13.20;;;18.80;99.90;;;;;;5002894;28;20038;-76
2022/06/07 10:48:28;;;;;;;10.85;9.75;;;18.60;99.90;;;;;;4973527;28;20038;-76
2022/06/07 10:50:56;;;;;;;14.90;13.00;;;18.60;99.90;;;;;;4988910;28;20065;-77
2022/06/07 10:53:29;;;;;;;12.77;11.48;;;17.80;99.90;;;;;;4988573;28;20034;-76
2022/06/07 10:56:27;;;;;;;14.63;12.70;;;17.70;99.90;;;;;;4993106;28;20084;-76
2022/06/07 10:58:54;;;;;;;15.65;13.82;;;17.80;99.90;;;;;;4977547;28;20548;-76
2022/06/07 11:01:47;;;;;;;16.02;13.63;;;17.90;99.90;;;;;;4991572;28;20050;-76
2022/06/07 11:10:26;;;;;;;15.82;14.23;;;18.50;99.90;;;;;;4991570;28;20505;-76
2022/06/07 11:13:17;;;;;;;17.05;15.23;;;18.80;99.90;;;;;;4990214;28;20042;-76
2022/06/07 11:16:20;;;;;;;13.23;11.85;;;18.90;99.90;;;;;;4990120;28;20029;-76
2022/06/07 11:18:46;;;;;;;14.52;12.98;;;19.10;99.90;;;;;;4938143;28;20177;-76
2022/06/07 11:21:36;;;;;;;13.65;12.10;;;18.80;99.90;;;;;;4995352;28;20064;-77
2022/06/07 11:24:19;;;;;;;12.70;11.50;;;18.70;99.90;;;;;;5006618;28;20018;-77
2022/06/07 11:26:51;;;;;;;14.57;12.43;;;18.60;99.90;;;;;;5003401;28;20141;-77
2022/06/07 11:29:24;;;;;;;12.77;11.45;;;18.80;99.90;;;;;;5007053;28;20049;-77
2022/06/07 11:31:51;;;;;;;9.50;8.52;;;18.90;99.90;;;;;;5002884;28;20037;-77
2022/06/07 11:34:36;;;;;;;14.55;13.25;;;19.50;99.90;;;;;;5011410;28;20029;-77
2022/06/07 11:37:07;;;;;;;15.98;14.25;;;19.40;99.90;;;;;;5005673;28;20584;-77
2022/06/07 11:39:39;;;;;;;14.57;12.85;;;18.50;99.90;;;;;;5011576;28;20044;-84
2022/06/07 11:42:10;;;;;;;14.82;13.27;;;18.80;99.90;;;;;;5006453;28;20041;-77
2022/06/07 11:45:03;;;;;;;14.45;12.95;;;18.80;99.90;;;;;;5006861;28;20022;-78
2022/06/07 11:47:52;;;;;;;14.35;12.95;;;19.00;99.90;;;;;;5004523;28;20049;-77
2022/06/07 11:50:32;;;;;;;13.93;12.23;;;18.80;99.90;;;;;;4979385;28;20053;-77
2022/06/07 11:53:28;;;;;;;15.65;14.15;;;19.00;99.90;;;;;;5002105;28;20033;-78
2022/06/07 11:56:11;;;;;;;15.27;12.70;;;19.70;99.90;;;;;;5006123;28;20025;-78
2022/06/07 11:58:59;;;;;;;13.30;11.93;;;20.10;99.90;;;;;;5008546;28;20124;-77
2022/06/07 12:01:41;;;;;;;12.02;10.82;;;19.60;99.90;;;;;;5006820;28;21923;-76
2022/06/07 12:04:28;;;;;;;14.27;12.45;;;19.60;99.90;;;;;;5004422;28;20516;-77
2022/06/07 12:06:59;;;;;;;13.73;10.82;;;19.50;99.90;;;;;;5002810;28;20029;-77
2022/06/07 12:09:27;;;;;;;11.98;9.82;;;19.60;99.90;;;;;;5013883;28;20033;-77
2022/06/07 12:11:53;;;;;;;12.65;9.73;;;19.40;99.90;;;;;;5011264;28;20030;-77
2022/06/07 12:14:50;;;;;;;13.30;11.90;;;19.30;99.90;;;;;;5005861;28;21068;-77
2022/06/07 12:17:25;;;;;;;16.15;14.38;;;19.20;99.90;;;;;;4977440;28;20569;-80
2022/06/07 12:19:51;;;;;;;15.90;14.30;;;19.10;99.90;;;;;;5012041;28;20087;-77
2022/06/07 12:22:20;;;;;;;14.82;13.02;;;19.30;99.90;;;;;;5003956;28;20478;-77
2022/06/07 12:25:10;;;;;;;12.07;10.98;;;19.10;99.90;;;;;;5006159;28;20029;-77
2022/06/07 12:27:46;;;;;;;14.10;12.68;;;19.10;99.90;;;;;;5006394;28;20029;-77
2022/06/07 12:30:32;;;;;;;15.55;13.93;;;19.60;99.90;;;;;;5007059;28;20743;-77
2022/06/07 12:33:21;;;;;;;14.00;12.70;;;19.20;99.90;;;;;;5005798;28;20067;-77
2022/06/07 12:35:59;;;;;;;12.38;9.95;;;19.20;99.90;;;;;;5006737;28;20050;-76
2022/06/07 12:38:27;;;;;;;11.35;10.00;;;19.20;99.90;;;;;;4994694;28;20374;-77
2022/06/07 12:41:03;;;;;;;12.32;11.00;;;19.20;99.90;;;;;;5004535;28;20077;-76
2022/06/07 12:43:37;;;;;;;12.80;11.50;;;19.30;99.90;;;;;;5004756;28;20038;-77
2022/06/07 12:46:20;;;;;;;13.50;12.23;;;19.40;99.90;;;;;;5011817;28;20465;-78
2022/06/07 12:48:46;;;;;;;13.23;11.80;;;19.90;99.90;;;;;;5004390;28;20038;-77
2022/06/07 12:51:34;;;;;;;11.63;10.48;;;20.20;99.90;;;;;;5003554;28;20034;-77
2022/06/07 12:54:09;;;;;;;9.82;8.82;;;20.30;99.90;;;;;;5005994;28;20038;-76
2022/06/07 12:56:41;;;;;;;14.57;11.07;;;20.10;99.90;;;;;;4997408;28;20045;-76
2022/06/07 12:59:30;;;;;;;12.55;10.82;;;19.80;99.90;;;;;;5005417;28;20539;-76
2022/06/07 13:01:56;;;;;;;11.27;8.97;;;19.70;99.90;;;;;;5002190;28;20124;-77
2022/06/07 13:04:35;;;;;;;9.60;8.27;;;20.20;99.90;;;;;;5013736;28;20145;-76
2022/06/07 13:07:17;;;;;;;8.77;7.03;;;20.30;99.90;;;;;;4992500;28;20037;-79
2022/06/07 13:09:49;;;;;;;13.15;10.70;;;20.60;99.90;;;;;;5013097;28;21995;-77
2022/06/07 13:12:20;;;;;;;11.05;9.95;;;20.20;99.90;;;;;;4991998;28;20037;-77
2022/06/07 13:14:46;;;;;;;11.10;10.00;;;20.30;99.90;;;;;;5010454;28;20034;-77
2022/06/07 13:17:16;;;;;;;12.88;10.43;;;19.90;99.90;;;;;;4991619;28;20048;-77
2022/06/07 13:19:45;;;;;;;12.98;11.35;;;19.70;99.90;;;;;;4993427;28;20604;-77
2022/06/07 13:22:18;;;;;;;9.30;8.23;;;19.90;99.90;;;;;;5006791;28;20045;-77
2022/06/07 13:24:51;;;;;;;9.75;8.77;;;20.30;99.90;;;;;;5011435;28;20144;-77